sensor_id;sensor_type;location;lat;lon;timestamp;temperature;humidity
15705;DHT22;7952;48.396;12.806;2022-12-26T00:01:38;10.50;60.60
15705;DHT22;7952;48.396;12.806;2022-12-26T00:04:37;10.50;60.60
15705;DHT22;7952;48.396;12.806;2022-12-26T00:07:07;10.50;60.60
15705;DHT22;7952;48.396;12.806;2022-12-26T00:09:40;10.50;60.60
15705;DHT22;7952;48.396;12.806;2022-12-26T00:15:14;10.50;60.60
15705;DHT22;7952;48.396;12.806;2022-12-26T00:18:07;10.50;60.60
15705;DHT22;7952;48.396;12.806;2022-12-26T00:21:01;10.50;60.70
15705;DHT22;7952;48.396;12.806;2022-12-26T00:26:50;10.50;60.60
15705;DHT22;7952;48.396;12.806;2022-12-26T00:29:16;10.50;60.70
15705;DHT22;7952;48.396;12.806;2022-12-26T00:34:49;10.50;60.70
15705;DHT22;7952;48.396;12.806;2022-12-26T00:37:15;10.50;60.70
15705;DHT22;7952;48.396;12.806;2022-12-26T00:42:19;10.50;60.80
15705;DHT22;7952;48.396;12.806;2022-12-26T00:47:47;10.50;60.80
15705;DHT22;7952;48.396;12.806;2022-12-26T00:50:19;10.50;60.80
15705;DHT22;7952;48.396;12.806;2022-12-26T00:52:45;10.60;60.80
15705;DHT22;7952;48.396;12.806;2022-12-26T00:55:15;10.60;60.80
15705;DHT22;7952;48.396;12.806;2022-12-26T00:58:04;10.60;60.80
15705;DHT22;7952;48.396;12.806;2022-12-26T01:00:33;10.60;60.80
15705;DHT22;7952;48.396;12.806;2022-12-26T01:16:45;10.70;60.70
15705;DHT22;7952;48.396;12.806;2022-12-26T01:19:12;10.70;60.70
15705;DHT22;7952;48.396;12.806;2022-12-26T01:21:38;10.70;60.80
15705;DHT22;7952;48.396;12.806;2022-12-26T01:30:50;10.70;60.70
15705;DHT22;7952;48.396;12.806;2022-12-26T01:57:47;10.80;60.80
15705;DHT22;7952;48.396;12.806;2022-12-26T02:30:34;10.70;60.80
15705;DHT22;7952;48.396;12.806;2022-12-26T02:33:24;10.70;60.90
15705;DHT22;7952;48.396;12.806;2022-12-26T02:42:13;10.70;61.00
15705;DHT22;7952;48.396;12.806;2022-12-26T02:48:29;10.60;60.90
15705;DHT22;7952;48.396;12.806;2022-12-26T03:00:32;10.60;61.00
15705;DHT22;7952;48.396;12.806;2022-12-26T03:03:25;10.60;61.50
15705;DHT22;7952;48.396;12.806;2022-12-26T03:06:17;10.60;61.00
15705;DHT22;7952;48.396;12.806;2022-12-26T03:12:55;10.50;60.90
15705;DHT22;7952;48.396;12.806;2022-12-26T03:25:08;10.60;60.90
15705;DHT22;7952;48.396;12.806;2022-12-26T03:27:53;10.60;60.90
15705;DHT22;7952;48.396;12.806;2022-12-26T03:31:03;10.60;60.90
15705;DHT22;7952;48.396;12.806;2022-12-26T03:40:39;10.60;60.90
15705;DHT22;7952;48.396;12.806;2022-12-26T03:43:33;10.50;60.90
15705;DHT22;7952;48.396;12.806;2022-12-26T03:49:37;10.40;60.90
15705;DHT22;7952;48.396;12.806;2022-12-26T03:52:40;10.30;60.80
15705;DHT22;7952;48.396;12.806;2022-12-26T03:55:44;10.30;60.90
15705;DHT22;7952;48.396;12.806;2022-12-26T04:01:41;10.10;60.80
15705;DHT22;7952;48.396;12.806;2022-12-26T04:04:28;10.10;61.00
15705;DHT22;7952;48.396;12.806;2022-12-26T04:07:33;10.00;61.00
15705;DHT22;7952;48.396;12.806;2022-12-26T04:10:23;9.90;62.00
15705;DHT22;7952;48.396;12.806;2022-12-26T04:13:22;9.90;62.10
15705;DHT22;7952;48.396;12.806;2022-12-26T04:16:41;9.80;62.10
15705;DHT22;7952;48.396;12.806;2022-12-26T04:21:53;9.70;62.10
15705;DHT22;7952;48.396;12.806;2022-12-26T04:24:55;9.60;62.10
15705;DHT22;7952;48.396;12.806;2022-12-26T04:27:41;9.50;62.10
15705;DHT22;7952;48.396;12.806;2022-12-26T04:30:25;9.50;62.20
15705;DHT22;7952;48.396;12.806;2022-12-26T04:33:23;9.40;62.20
15705;DHT22;7952;48.396;12.806;2022-12-26T04:36:15;9.40;62.30
15705;DHT22;7952;48.396;12.806;2022-12-26T04:39:04;9.40;62.30
15705;DHT22;7952;48.396;12.806;2022-12-26T04:41:50;9.30;62.30
15705;DHT22;7952;48.396;12.806;2022-12-26T04:44:35;9.30;62.30
15705;DHT22;7952;48.396;12.806;2022-12-26T04:47:01;9.30;62.30
15705;DHT22;7952;48.396;12.806;2022-12-26T04:49:27;9.20;62.20
15705;DHT22;7952;48.396;12.806;2022-12-26T04:52:13;9.20;62.20
15705;DHT22;7952;48.396;12.806;2022-12-26T04:54:40;9.20;62.30
15705;DHT22;7952;48.396;12.806;2022-12-26T04:57:06;9.10;62.30
15705;DHT22;7952;48.396;12.806;2022-12-26T04:59:32;9.10;62.20
15705;DHT22;7952;48.396;12.806;2022-12-26T05:01:57;9.10;62.20
15705;DHT22;7952;48.396;12.806;2022-12-26T05:04:42;9.10;62.20
15705;DHT22;7952;48.396;12.806;2022-12-26T05:07:29;9.10;62.30
15705;DHT22;7952;48.396;12.806;2022-12-26T05:10:32;9.00;62.10
15705;DHT22;7952;48.396;12.806;2022-12-26T05:12:57;9.00;62.20
15705;DHT22;7952;48.396;12.806;2022-12-26T05:15:23;8.90;62.10
15705;DHT22;7952;48.396;12.806;2022-12-26T05:17:48;8.90;62.20
15705;DHT22;7952;48.396;12.806;2022-12-26T05:20:32;8.90;62.40
15705;DHT22;7952;48.396;12.806;2022-12-26T05:23:25;8.90;62.40
15705;DHT22;7952;48.396;12.806;2022-12-26T05:26:17;9.00;62.50
15705;DHT22;7952;48.396;12.806;2022-12-26T05:29:02;9.00;62.50
15705;DHT22;7952;48.396;12.806;2022-12-26T05:31:28;9.10;62.40
15705;DHT22;7952;48.396;12.806;2022-12-26T05:33:54;9.10;62.40
15705;DHT22;7952;48.396;12.806;2022-12-26T05:36:38;9.10;62.30
15705;DHT22;7952;48.396;12.806;2022-12-26T05:39:06;9.10;62.20
15705;DHT22;7952;48.396;12.806;2022-12-26T05:41:31;9.10;62.20
15705;DHT22;7952;48.396;12.806;2022-12-26T05:43:57;9.20;62.20
15705;DHT22;7952;48.396;12.806;2022-12-26T05:46:22;9.20;62.20
15705;DHT22;7952;48.396;12.806;2022-12-26T05:48:48;9.20;62.20
15705;DHT22;7952;48.396;12.806;2022-12-26T05:51:13;9.20;62.10
15705;DHT22;7952;48.396;12.806;2022-12-26T05:53:39;9.20;62.10
15705;DHT22;7952;48.396;12.806;2022-12-26T05:56:09;9.30;62.10
15705;DHT22;7952;48.396;12.806;2022-12-26T05:58:35;9.30;62.10
15705;DHT22;7952;48.396;12.806;2022-12-26T06:01:27;9.30;62.00
15705;DHT22;7952;48.396;12.806;2022-12-26T06:03:55;9.30;62.00
15705;DHT22;7952;48.396;12.806;2022-12-26T06:06:23;9.30;62.00
15705;DHT22;7952;48.396;12.806;2022-12-26T06:08:50;9.30;62.00
15705;DHT22;7952;48.396;12.806;2022-12-26T06:11:17;9.30;62.00
15705;DHT22;7952;48.396;12.806;2022-12-26T06:13:43;9.30;62.00
15705;DHT22;7952;48.396;12.806;2022-12-26T06:16:12;9.30;62.00
15705;DHT22;7952;48.396;12.806;2022-12-26T06:18:38;9.30;61.90
15705;DHT22;7952;48.396;12.806;2022-12-26T06:21:06;9.40;61.90
15705;DHT22;7952;48.396;12.806;2022-12-26T06:23:33;9.40;61.80
15705;DHT22;7952;48.396;12.806;2022-12-26T06:25:58;9.40;61.80
15705;DHT22;7952;48.396;12.806;2022-12-26T06:28:24;9.40;61.70
15705;DHT22;7952;48.396;12.806;2022-12-26T06:30:51;9.50;61.70
15705;DHT22;7952;48.396;12.806;2022-12-26T06:33:17;9.50;61.70
15705;DHT22;7952;48.396;12.806;2022-12-26T06:35:43;9.50;61.70
15705;DHT22;7952;48.396;12.806;2022-12-26T06:38:09;9.50;61.70
15705;DHT22;7952;48.396;12.806;2022-12-26T06:40:38;9.50;61.60
15705;DHT22;7952;48.396;12.806;2022-12-26T06:43:04;9.50;61.60
15705;DHT22;7952;48.396;12.806;2022-12-26T06:45:30;9.50;61.60
15705;DHT22;7952;48.396;12.806;2022-12-26T06:47:56;9.40;61.50
15705;DHT22;7952;48.396;12.806;2022-12-26T06:50:23;9.40;62.20
15705;DHT22;7952;48.396;12.806;2022-12-26T06:52:49;9.40;61.50
15705;DHT22;7952;48.396;12.806;2022-12-26T06:55:14;9.40;61.60
15705;DHT22;7952;48.396;12.806;2022-12-26T06:57:40;9.40;61.60
15705;DHT22;7952;48.396;12.806;2022-12-26T07:00:06;9.40;61.60
15705;DHT22;7952;48.396;12.806;2022-12-26T07:02:31;9.40;61.60
15705;DHT22;7952;48.396;12.806;2022-12-26T07:04:57;9.40;61.70
15705;DHT22;7952;48.396;12.806;2022-12-26T07:07:22;9.40;61.70
15705;DHT22;7952;48.396;12.806;2022-12-26T07:09:48;9.40;61.70
15705;DHT22;7952;48.396;12.806;2022-12-26T07:12:13;9.40;61.70
15705;DHT22;7952;48.396;12.806;2022-12-26T07:14:39;9.40;61.80
15705;DHT22;7952;48.396;12.806;2022-12-26T07:17:05;9.40;61.70
15705;DHT22;7952;48.396;12.806;2022-12-26T07:19:30;9.40;61.80
15705;DHT22;7952;48.396;12.806;2022-12-26T07:21:56;9.40;61.80
15705;DHT22;7952;48.396;12.806;2022-12-26T07:24:21;9.40;61.80
15705;DHT22;7952;48.396;12.806;2022-12-26T07:26:48;9.40;61.80
15705;DHT22;7952;48.396;12.806;2022-12-26T07:29:14;9.50;61.90
15705;DHT22;7952;48.396;12.806;2022-12-26T07:31:40;9.50;61.90
15705;DHT22;7952;48.396;12.806;2022-12-26T07:34:06;9.60;62.00
15705;DHT22;7952;48.396;12.806;2022-12-26T07:36:32;9.70;62.20
15705;DHT22;7952;48.396;12.806;2022-12-26T07:38:58;9.80;62.30
15705;DHT22;7952;48.396;12.806;2022-12-26T07:41:23;9.90;62.30
15705;DHT22;7952;48.396;12.806;2022-12-26T07:44:15;10.10;62.10
15705;DHT22;7952;48.396;12.806;2022-12-26T07:46:41;10.30;61.60
15705;DHT22;7952;48.396;12.806;2022-12-26T07:49:11;10.50;61.60
15705;DHT22;7952;48.396;12.806;2022-12-26T07:58:36;11.60;62.20
15705;DHT22;7952;48.396;12.806;2022-12-26T08:01:03;12.00;62.20
15705;DHT22;7952;48.396;12.806;2022-12-26T08:03:29;12.40;62.30
15705;DHT22;7952;48.396;12.806;2022-12-26T08:27:05;15.20;60.90
15705;DHT22;7952;48.396;12.806;2022-12-26T08:40:25;14.90;60.90
15705;DHT22;7952;48.396;12.806;2022-12-26T14:44:39;13.00;60.00
15705;DHT22;7952;48.396;12.806;2022-12-26T14:50:43;12.90;60.00
15705;DHT22;7952;48.396;12.806;2022-12-26T15:04:03;12.80;60.00
15705;DHT22;7952;48.396;12.806;2022-12-26T15:16:32;12.70;60.10
15705;DHT22;7952;48.396;12.806;2022-12-26T15:41:34;12.60;60.10
15705;DHT22;7952;48.396;12.806;2022-12-26T16:00:51;12.50;60.20
15705;DHT22;7952;48.396;12.806;2022-12-26T16:03:38;12.50;60.20
15705;DHT22;7952;48.396;12.806;2022-12-26T16:06:22;12.50;60.20
15705;DHT22;7952;48.396;12.806;2022-12-26T16:29:04;12.40;60.20
15705;DHT22;7952;48.396;12.806;2022-12-26T16:38:04;12.30;60.20
15705;DHT22;7952;48.396;12.806;2022-12-26T16:43:40;12.40;60.30
15705;DHT22;7952;48.396;12.806;2022-12-26T16:46:06;12.30;60.20
15705;DHT22;7952;48.396;12.806;2022-12-26T16:48:35;12.30;60.90
15705;DHT22;7952;48.396;12.806;2022-12-26T16:51:44;12.30;60.90
15705;DHT22;7952;48.396;12.806;2022-12-26T16:56:41;12.30;60.20
15705;DHT22;7952;48.396;12.806;2022-12-26T17:02:25;12.30;60.30
15705;DHT22;7952;48.396;12.806;2022-12-26T17:08:12;12.40;60.40
15705;DHT22;7952;48.396;12.806;2022-12-26T17:17:53;12.30;60.40
15705;DHT22;7952;48.396;12.806;2022-12-26T17:20:34;12.30;60.40
15705;DHT22;7952;48.396;12.806;2022-12-26T17:23:31;12.30;60.40
15705;DHT22;7952;48.396;12.806;2022-12-26T17:26:20;12.30;60.40
15705;DHT22;7952;48.396;12.806;2022-12-26T17:32:38;12.30;60.40
15705;DHT22;7952;48.396;12.806;2022-12-26T17:38:15;12.20;60.40
15705;DHT22;7952;48.396;12.806;2022-12-26T17:41:04;12.20;60.40
15705;DHT22;7952;48.396;12.806;2022-12-26T17:43:33;12.20;60.40
15705;DHT22;7952;48.396;12.806;2022-12-26T17:45:59;12.20;60.50
15705;DHT22;7952;48.396;12.806;2022-12-26T17:48:27;12.20;60.50
15705;DHT22;7952;48.396;12.806;2022-12-26T17:50:59;12.20;60.50
15705;DHT22;7952;48.396;12.806;2022-12-26T17:53:29;12.20;60.50
15705;DHT22;7952;48.396;12.806;2022-12-26T17:56:08;12.20;60.50
15705;DHT22;7952;48.396;12.806;2022-12-26T17:59:13;12.20;60.50
15705;DHT22;7952;48.396;12.806;2022-12-26T18:01:51;12.20;60.50
15705;DHT22;7952;48.396;12.806;2022-12-26T18:07:54;12.10;60.50
15705;DHT22;7952;48.396;12.806;2022-12-26T18:10:24;12.10;60.50
15705;DHT22;7952;48.396;12.806;2022-12-26T18:12:58;12.10;60.50
15705;DHT22;7952;48.396;12.806;2022-12-26T18:15:25;12.10;60.50
15705;DHT22;7952;48.396;12.806;2022-12-26T18:20:58;12.00;60.50
15705;DHT22;7952;48.396;12.806;2022-12-26T18:23:24;12.00;60.50
15705;DHT22;7952;48.396;12.806;2022-12-26T18:26:25;12.00;60.60
15705;DHT22;7952;48.396;12.806;2022-12-26T18:28:51;12.00;60.60
15705;DHT22;7952;48.396;12.806;2022-12-26T18:31:18;12.00;60.60
15705;DHT22;7952;48.396;12.806;2022-12-26T18:33:44;12.00;60.60
15705;DHT22;7952;48.396;12.806;2022-12-26T18:36:14;12.00;60.60
15705;DHT22;7952;48.396;12.806;2022-12-26T18:38:43;12.00;60.60
15705;DHT22;7952;48.396;12.806;2022-12-26T18:41:27;12.00;60.70
15705;DHT22;7952;48.396;12.806;2022-12-26T18:44:03;11.90;60.60
15705;DHT22;7952;48.396;12.806;2022-12-26T18:46:29;12.00;60.70
15705;DHT22;7952;48.396;12.806;2022-12-26T18:51:56;11.90;60.60
15705;DHT22;7952;48.396;12.806;2022-12-26T18:54:25;11.90;60.70
15705;DHT22;7952;48.396;12.806;2022-12-26T18:56:50;11.90;60.70
15705;DHT22;7952;48.396;12.806;2022-12-26T18:59:16;11.90;60.70
15705;DHT22;7952;48.396;12.806;2022-12-26T19:01:42;11.90;60.70
15705;DHT22;7952;48.396;12.806;2022-12-26T19:04:13;11.90;60.70
15705;DHT22;7952;48.396;12.806;2022-12-26T19:06:49;11.90;60.70
15705;DHT22;7952;48.396;12.806;2022-12-26T19:09:15;11.90;60.70
15705;DHT22;7952;48.396;12.806;2022-12-26T19:11:41;11.80;60.70
15705;DHT22;7952;48.396;12.806;2022-12-26T19:14:18;11.80;60.70
15705;DHT22;7952;48.396;12.806;2022-12-26T19:16:44;11.80;60.70
15705;DHT22;7952;48.396;12.806;2022-12-26T19:19:10;11.80;60.70
15705;DHT22;7952;48.396;12.806;2022-12-26T19:21:36;11.80;60.70
15705;DHT22;7952;48.396;12.806;2022-12-26T19:24:02;11.80;60.70
15705;DHT22;7952;48.396;12.806;2022-12-26T19:26:28;11.80;60.70
15705;DHT22;7952;48.396;12.806;2022-12-26T19:28:57;11.80;60.70
15705;DHT22;7952;48.396;12.806;2022-12-26T19:31:22;11.80;60.80
15705;DHT22;7952;48.396;12.806;2022-12-26T19:33:49;11.80;60.80
15705;DHT22;7952;48.396;12.806;2022-12-26T19:36:15;11.80;60.80
15705;DHT22;7952;48.396;12.806;2022-12-26T19:38:41;11.80;60.80
15705;DHT22;7952;48.396;12.806;2022-12-26T19:41:13;11.80;60.80
15705;DHT22;7952;48.396;12.806;2022-12-26T19:43:39;11.80;60.80
15705;DHT22;7952;48.396;12.806;2022-12-26T19:46:08;11.80;60.80
15705;DHT22;7952;48.396;12.806;2022-12-26T19:48:35;11.80;60.80
15705;DHT22;7952;48.396;12.806;2022-12-26T19:51:35;11.80;60.90
15705;DHT22;7952;48.396;12.806;2022-12-26T19:54:02;11.80;60.80
15705;DHT22;7952;48.396;12.806;2022-12-26T19:56:28;11.80;60.90
15705;DHT22;7952;48.396;12.806;2022-12-26T19:58:54;11.80;60.90
15705;DHT22;7952;48.396;12.806;2022-12-26T20:01:26;11.80;60.90
15705;DHT22;7952;48.396;12.806;2022-12-26T20:03:56;11.80;60.90
15705;DHT22;7952;48.396;12.806;2022-12-26T20:06:24;11.80;60.90
15705;DHT22;7952;48.396;12.806;2022-12-26T20:08:51;11.80;60.90
15705;DHT22;7952;48.396;12.806;2022-12-26T20:12:06;11.80;60.90
15705;DHT22;7952;48.396;12.806;2022-12-26T20:14:16;11.80;60.90
15705;DHT22;7952;48.396;12.806;2022-12-26T20:16:43;11.80;60.90
15705;DHT22;7952;48.396;12.806;2022-12-26T20:19:09;11.80;60.90
15705;DHT22;7952;48.396;12.806;2022-12-26T20:21:34;11.80;60.90
15705;DHT22;7952;48.396;12.806;2022-12-26T20:24:01;11.80;60.90
15705;DHT22;7952;48.396;12.806;2022-12-26T20:26:27;11.80;60.90
15705;DHT22;7952;48.396;12.806;2022-12-26T20:29:16;11.80;60.90
15705;DHT22;7952;48.396;12.806;2022-12-26T20:31:42;11.80;60.90
15705;DHT22;7952;48.396;12.806;2022-12-26T20:34:08;11.80;60.90
15705;DHT22;7952;48.396;12.806;2022-12-26T20:36:38;11.80;60.90
15705;DHT22;7952;48.396;12.806;2022-12-26T20:39:07;11.80;60.90
15705;DHT22;7952;48.396;12.806;2022-12-26T20:41:33;11.80;60.90
15705;DHT22;7952;48.396;12.806;2022-12-26T20:43:59;11.80;61.00
15705;DHT22;7952;48.396;12.806;2022-12-26T20:46:27;11.80;61.00
15705;DHT22;7952;48.396;12.806;2022-12-26T20:48:53;11.80;61.00
15705;DHT22;7952;48.396;12.806;2022-12-26T20:51:22;11.70;60.90
15705;DHT22;7952;48.396;12.806;2022-12-26T20:53:51;11.70;60.90
15705;DHT22;7952;48.396;12.806;2022-12-26T20:56:20;11.70;60.90
15705;DHT22;7952;48.396;12.806;2022-12-26T20:58:46;11.70;60.90
15705;DHT22;7952;48.396;12.806;2022-12-26T21:01:24;11.70;61.00
15705;DHT22;7952;48.396;12.806;2022-12-26T21:03:53;11.70;61.30
15705;DHT22;7952;48.396;12.806;2022-12-26T21:06:26;11.70;61.00
15705;DHT22;7952;48.396;12.806;2022-12-26T21:08:52;11.70;61.00
15705;DHT22;7952;48.396;12.806;2022-12-26T21:11:30;11.70;61.00
15705;DHT22;7952;48.396;12.806;2022-12-26T21:13:59;11.70;61.00
15705;DHT22;7952;48.396;12.806;2022-12-26T21:21:54;11.70;61.00
15705;DHT22;7952;48.396;12.806;2022-12-26T21:24:23;11.70;61.00
15705;DHT22;7952;48.396;12.806;2022-12-26T21:26:49;11.70;61.00
15705;DHT22;7952;48.396;12.806;2022-12-26T21:29:28;11.70;61.00
15705;DHT22;7952;48.396;12.806;2022-12-26T21:31:54;11.70;61.00
15705;DHT22;7952;48.396;12.806;2022-12-26T21:34:23;11.70;61.10
15705;DHT22;7952;48.396;12.806;2022-12-26T21:36:49;11.70;61.00
15705;DHT22;7952;48.396;12.806;2022-12-26T21:39:35;11.80;61.20
15705;DHT22;7952;48.396;12.806;2022-12-26T21:42:01;11.70;61.00
15705;DHT22;7952;48.396;12.806;2022-12-26T21:44:27;11.70;61.00
15705;DHT22;7952;48.396;12.806;2022-12-26T21:46:52;11.80;61.10
15705;DHT22;7952;48.396;12.806;2022-12-26T21:49:18;11.80;61.10
15705;DHT22;7952;48.396;12.806;2022-12-26T21:51:53;11.80;61.10
15705;DHT22;7952;48.396;12.806;2022-12-26T21:54:26;11.80;61.10
15705;DHT22;7952;48.396;12.806;2022-12-26T21:57:11;11.80;61.10
15705;DHT22;7952;48.396;12.806;2022-12-26T21:59:43;11.80;61.00
15705;DHT22;7952;48.396;12.806;2022-12-26T22:02:33;11.80;61.00
15705;DHT22;7952;48.396;12.806;2022-12-26T22:05:19;11.80;61.00
15705;DHT22;7952;48.396;12.806;2022-12-26T22:07:46;11.90;61.10
15705;DHT22;7952;48.396;12.806;2022-12-26T22:10:14;11.90;61.10
15705;DHT22;7952;48.396;12.806;2022-12-26T22:15:44;11.90;61.10
15705;DHT22;7952;48.396;12.806;2022-12-26T22:21:35;11.90;61.00
15705;DHT22;7952;48.396;12.806;2022-12-26T22:24:01;11.90;61.00
15705;DHT22;7952;48.396;12.806;2022-12-26T22:26:27;11.90;60.90
15705;DHT22;7952;48.396;12.806;2022-12-26T22:28:56;11.90;61.00
15705;DHT22;7952;48.396;12.806;2022-12-26T22:31:45;11.90;60.90
15705;DHT22;7952;48.396;12.806;2022-12-26T22:34:17;11.90;61.00
15705;DHT22;7952;48.396;12.806;2022-12-26T22:36:43;11.80;60.90
15705;DHT22;7952;48.396;12.806;2022-12-26T22:39:36;11.80;60.90
15705;DHT22;7952;48.396;12.806;2022-12-26T22:42:02;11.80;61.00
15705;DHT22;7952;48.396;12.806;2022-12-26T22:44:28;11.70;60.90
15705;DHT22;7952;48.396;12.806;2022-12-26T22:46:54;11.70;60.90
15705;DHT22;7952;48.396;12.806;2022-12-26T22:49:37;11.70;61.00
15705;DHT22;7952;48.396;12.806;2022-12-26T22:52:03;11.60;60.90
15705;DHT22;7952;48.396;12.806;2022-12-26T22:54:29;11.60;61.00
15705;DHT22;7952;48.396;12.806;2022-12-26T22:56:54;11.60;61.00
15705;DHT22;7952;48.396;12.806;2022-12-26T22:59:20;11.50;61.00
15705;DHT22;7952;48.396;12.806;2022-12-26T23:01:46;11.50;61.00
15705;DHT22;7952;48.396;12.806;2022-12-26T23:04:12;11.50;61.10
15705;DHT22;7952;48.396;12.806;2022-12-26T23:06:38;11.50;61.20
15705;DHT22;7952;48.396;12.806;2022-12-26T23:09:15;11.40;61.10
15705;DHT22;7952;48.396;12.806;2022-12-26T23:11:43;11.40;61.10
15705;DHT22;7952;48.396;12.806;2022-12-26T23:14:29;11.40;61.20
15705;DHT22;7952;48.396;12.806;2022-12-26T23:16:57;11.40;61.20
15705;DHT22;7952;48.396;12.806;2022-12-26T23:23:06;11.30;61.10
15705;DHT22;7952;48.396;12.806;2022-12-26T23:39:38;11.10;61.30
15705;DHT22;7952;48.396;12.806;2022-12-26T23:49:36;11.00;61.40
15705;DHT22;7952;48.396;12.806;2022-12-26T23:52:09;11.00;61.50
15705;DHT22;7952;48.396;12.806;2022-12-26T23:54:48;11.00;61.50
15705;DHT22;7952;48.396;12.806;2022-12-26T23:57:13;11.00;61.40
15705;DHT22;7952;48.396;12.806;2022-12-26T23:59:39;11.00;61.40
